createdAt,value
2018-04-07T00:00:23.889Z,1.43
2018-04-07T00:01:26.417Z,1.13
2018-04-07T00:02:28.920Z,1.10
2018-04-07T00:03:31.429Z,1.60
2018-04-07T00:04:33.937Z,1.10
2018-04-07T00:05:36.440Z,1.13
2018-04-07T00:06:38.968Z,1.30
2018-04-07T00:07:41.481Z,1.50
2018-04-07T00:08:43.987Z,1.40
2018-04-07T00:09:46.513Z,1.40
2018-04-07T00:10:49.035Z,1.70
2018-04-07T00:11:51.564Z,1.67
2018-04-07T00:12:54.073Z,1.40
2018-04-07T00:13:56.651Z,1.23
2018-04-07T00:14:59.165Z,1.40
2018-04-07T00:16:01.672Z,1.23
2018-04-07T00:17:04.196Z,1.30
2018-04-07T00:18:06.702Z,1.60
2018-04-07T00:19:09.233Z,1.33
2018-04-07T00:20:11.742Z,1.00
2018-04-07T00:21:14.249Z,0.97
2018-04-07T00:22:16.773Z,0.90
2018-04-07T00:23:19.285Z,1.83
2018-04-07T00:24:21.795Z,1.10
2018-04-07T00:25:24.302Z,1.10
2018-04-07T00:26:26.809Z,1.03
2018-04-07T00:27:29.333Z,1.00
2018-04-07T00:28:31.842Z,1.23
2018-04-07T00:29:34.364Z,1.10
2018-04-07T00:30:36.868Z,1.40
2018-04-07T00:31:39.379Z,0.90
2018-04-07T00:32:41.912Z,1.40
2018-04-07T00:33:44.421Z,1.37
2018-04-07T00:34:46.925Z,1.30
2018-04-07T00:35:49.433Z,1.20
2018-04-07T00:36:51.937Z,1.00
2018-04-07T00:37:54.459Z,1.33
2018-04-07T00:38:56.965Z,1.20
2018-04-07T00:39:59.464Z,1.47
2018-04-07T00:41:01.973Z,1.20
2018-04-07T00:42:04.477Z,1.77
2018-04-07T00:43:06.998Z,1.70
2018-04-07T00:44:09.504Z,1.07
2018-04-07T00:45:12.011Z,1.63
2018-04-07T00:46:14.517Z,1.40
2018-04-07T00:47:17.026Z,1.47
2018-04-07T00:48:19.544Z,1.53
2018-04-07T00:49:22.057Z,1.80
2018-04-07T00:50:24.568Z,1.30
2018-04-07T00:51:27.101Z,0.90
2018-04-07T00:52:41.537Z,1.40
2018-04-07T00:53:44.056Z,1.23
2018-04-07T00:54:46.561Z,1.57
2018-04-07T00:55:49.897Z,1.20
2018-04-07T00:56:52.404Z,1.40
2018-04-07T00:57:54.905Z,1.10
2018-04-07T00:58:57.424Z,1.20
2018-04-07T00:59:59.935Z,1.40
2018-04-07T01:01:02.445Z,1.53
2018-04-07T01:02:04.956Z,1.13
2018-04-07T01:03:07.465Z,1.63
2018-04-07T01:04:09.993Z,1.57
2018-04-07T01:05:12.551Z,1.10
2018-04-07T01:06:15.073Z,1.50
2018-04-07T01:07:17.613Z,1.30
2018-04-07T01:08:20.124Z,1.27
2018-04-07T01:09:22.649Z,1.27
2018-04-07T01:10:25.148Z,1.30
2018-04-07T01:11:27.652Z,0.93
2018-04-07T01:12:30.164Z,1.30
2018-04-07T01:13:32.668Z,1.27
2018-04-07T01:14:35.204Z,1.30
2018-04-07T01:15:37.708Z,1.03
2018-04-07T01:16:40.224Z,1.20
2018-04-07T01:17:42.734Z,1.10
2018-04-07T01:18:45.304Z,0.90
2018-04-07T01:19:47.825Z,1.00
2018-04-07T01:20:50.330Z,1.00
2018-04-07T01:21:52.835Z,0.87
2018-04-07T01:22:55.342Z,1.23
2018-04-07T01:23:58.009Z,1.30
2018-04-07T01:25:00.554Z,1.10
2018-04-07T01:26:03.057Z,0.97
2018-04-07T01:27:05.562Z,1.20
2018-04-07T01:28:08.148Z,0.93
2018-04-07T01:29:10.659Z,1.00
2018-04-07T01:30:13.181Z,1.30
2018-04-07T01:31:15.689Z,1.00
2018-04-07T01:32:18.199Z,1.13
2018-04-07T01:33:20.700Z,0.90
2018-04-07T01:34:23.206Z,1.03
2018-04-07T01:35:25.741Z,1.10
2018-04-07T01:36:28.244Z,0.90
2018-04-07T01:37:30.748Z,1.40
2018-04-07T01:38:33.264Z,1.10
2018-04-07T01:39:35.797Z,1.10
2018-04-07T01:40:38.324Z,1.83
2018-04-07T01:41:40.828Z,1.03
2018-04-07T01:42:43.330Z,1.43
2018-04-07T01:43:45.840Z,1.10
2018-04-07T01:44:48.369Z,1.23
2018-04-07T01:45:50.904Z,1.23
2018-04-07T01:46:53.573Z,1.20
2018-04-07T01:47:56.081Z,0.90
2018-04-07T01:48:58.599Z,0.90
2018-04-07T01:50:01.100Z,1.10
2018-04-07T01:51:03.625Z,0.80
2018-04-07T01:52:06.139Z,1.00
2018-04-07T01:53:08.657Z,0.70
2018-04-07T01:54:11.168Z,1.10
2018-04-07T01:55:13.673Z,1.07
2018-04-07T01:56:16.200Z,0.97
2018-04-07T01:57:18.712Z,0.80
2018-04-07T01:58:21.217Z,1.17
2018-04-07T01:59:23.732Z,1.23
2018-04-07T02:00:26.238Z,1.03
2018-04-07T02:01:28.777Z,0.97
2018-04-07T02:02:31.276Z,1.00
2018-04-07T02:03:33.788Z,1.93
2018-04-07T02:04:36.293Z,1.20
2018-04-07T02:05:38.800Z,1.10
2018-04-07T02:06:41.327Z,1.50
2018-04-07T02:07:43.837Z,1.90
2018-04-07T02:08:46.342Z,1.23
2018-04-07T02:09:48.844Z,1.00
2018-04-07T02:10:51.348Z,1.10
2018-04-07T02:11:53.877Z,0.93
2018-04-07T02:12:56.385Z,1.23
2018-04-07T02:13:58.889Z,1.60
2018-04-07T02:15:01.395Z,1.10
2018-04-07T02:16:03.903Z,1.13
2018-04-07T02:17:06.424Z,0.80
2018-04-07T02:18:08.994Z,0.80
2018-04-07T02:19:11.500Z,1.33
2018-04-07T02:20:14.032Z,0.93
2018-04-07T02:21:16.545Z,0.90
2018-04-07T02:22:19.072Z,0.93
2018-04-07T02:23:21.579Z,1.20
2018-04-07T02:24:24.084Z,1.20
2018-04-07T02:25:26.589Z,1.50
2018-04-07T02:26:29.088Z,1.10
2018-04-07T02:27:31.626Z,1.00
2018-04-07T02:28:34.132Z,1.10
2018-04-07T02:29:36.633Z,1.37
2018-04-07T02:30:39.148Z,1.50
2018-04-07T02:31:41.726Z,1.23
2018-04-07T02:32:44.253Z,1.07
2018-04-07T02:33:46.760Z,1.10
2018-04-07T02:34:49.268Z,1.10
2018-04-07T02:35:51.774Z,1.70
2018-04-07T02:36:54.301Z,1.27
2018-04-07T02:37:56.824Z,1.33
2018-04-07T02:38:59.330Z,1.43
2018-04-07T02:40:01.855Z,1.40
2018-04-07T02:41:04.357Z,1.00
2018-04-07T02:42:06.894Z,1.27
2018-04-07T02:43:09.422Z,1.03
2018-04-07T02:44:11.933Z,1.60
2018-04-07T02:45:14.447Z,1.10
2018-04-07T02:46:16.957Z,1.27
2018-04-07T02:47:19.540Z,1.10
2018-04-07T02:48:22.073Z,1.03
2018-04-07T02:49:24.580Z,1.23
2018-04-07T02:50:27.089Z,1.10
2018-04-07T02:51:29.686Z,1.50
2018-04-07T02:52:32.201Z,1.40
2018-04-07T02:53:34.774Z,1.27
2018-04-07T02:54:37.285Z,0.90
2018-04-07T02:55:39.793Z,0.97
2018-04-07T02:56:42.312Z,1.13
2018-04-07T02:57:44.825Z,0.90
2018-04-07T02:58:47.349Z,1.10
2018-04-07T02:59:49.857Z,0.80
2018-04-07T03:00:52.411Z,1.30
2018-04-07T03:01:54.912Z,1.00
2018-04-07T03:02:57.417Z,1.40
2018-04-07T03:03:59.942Z,1.37
2018-04-07T03:05:02.453Z,1.20
2018-04-07T03:06:04.957Z,1.47
2018-04-07T03:07:07.470Z,1.00
2018-04-07T03:08:09.998Z,1.13
2018-04-07T03:09:12.516Z,0.80
2018-04-07T03:10:15.030Z,0.80
2018-04-07T03:11:17.548Z,0.77
2018-04-07T03:12:20.058Z,1.10
2018-04-07T03:13:22.584Z,1.20
2018-04-07T03:14:25.090Z,1.03
2018-04-07T03:15:27.595Z,1.43
2018-04-07T03:16:30.104Z,1.17
2018-04-07T03:17:32.630Z,0.93
2018-04-07T03:18:35.160Z,1.17
2018-04-07T03:19:37.669Z,1.00
2018-04-07T03:20:40.177Z,0.80
2018-04-07T03:21:42.681Z,1.10
2018-04-07T03:22:45.180Z,0.90
2018-04-07T03:23:47.718Z,1.00
2018-04-07T03:24:50.229Z,1.10
2018-04-07T03:25:52.761Z,0.90
2018-04-07T03:26:55.275Z,0.87
2018-04-07T03:27:57.794Z,1.57
2018-04-07T03:29:00.320Z,1.10
2018-04-07T03:30:02.829Z,1.33
2018-04-07T03:31:05.334Z,1.20
2018-04-07T03:32:07.841Z,1.00
2018-04-07T03:33:10.361Z,1.73
2018-04-07T03:34:12.892Z,1.00
2018-04-07T03:35:15.401Z,1.23
2018-04-07T03:36:17.921Z,1.40
2018-04-07T03:37:20.424Z,1.00
2018-04-07T03:38:22.937Z,1.47
2018-04-07T03:39:25.497Z,1.40
2018-04-07T03:40:27.997Z,1.13
2018-04-07T03:41:30.497Z,1.00
2018-04-07T03:42:33.084Z,0.83
2018-04-07T03:43:35.616Z,0.93
2018-04-07T03:44:38.136Z,1.30
2018-04-07T03:45:40.647Z,1.33
2018-04-07T03:46:43.152Z,1.40
2018-04-07T03:47:45.670Z,1.40
2018-04-07T03:48:48.200Z,1.50
2018-04-07T03:49:50.705Z,1.13
2018-04-07T03:50:53.213Z,1.37
2018-04-07T03:51:55.724Z,1.23
2018-04-07T03:52:58.233Z,2.20
2018-04-07T03:54:00.770Z,1.63
2018-04-07T03:55:03.277Z,1.87
2018-04-07T03:56:05.792Z,1.90
2018-04-07T03:57:08.297Z,1.57
2018-04-07T03:58:10.805Z,1.70
2018-04-07T03:59:13.328Z,1.77
2018-04-07T04:00:15.839Z,2.93
2018-04-07T04:01:18.344Z,1.97
2018-04-07T04:02:20.857Z,1.77
2018-04-07T04:03:23.372Z,2.10
2018-04-07T04:04:25.897Z,2.10
2018-04-07T04:05:28.404Z,1.93
2018-04-07T04:06:30.939Z,1.50
2018-04-07T04:07:33.449Z,2.20
2018-04-07T04:08:35.957Z,1.77
2018-04-07T04:09:38.480Z,2.00
2018-04-07T04:10:40.989Z,2.50
2018-04-07T04:11:43.497Z,1.83
2018-04-07T04:12:46.008Z,1.80
2018-04-07T04:13:48.520Z,1.97
2018-04-07T04:14:51.048Z,2.47
2018-04-07T04:15:53.552Z,2.07
2018-04-07T04:16:56.061Z,2.00
2018-04-07T04:17:58.571Z,2.43
2018-04-07T04:19:01.081Z,1.73
2018-04-07T04:20:03.619Z,1.97
2018-04-07T04:21:06.134Z,2.10
2018-04-07T04:22:08.653Z,2.10
2018-04-07T04:23:11.166Z,2.07
2018-04-07T04:24:13.676Z,1.60
2018-04-07T04:25:16.200Z,1.60
2018-04-07T04:26:18.724Z,2.00
2018-04-07T04:27:21.228Z,1.57
2018-04-07T04:28:23.733Z,1.70
2018-04-07T04:29:26.244Z,1.73
2018-04-07T04:30:28.768Z,2.13
2018-04-07T04:31:31.284Z,1.90
2018-04-07T04:32:33.824Z,1.73
2018-04-07T04:33:36.374Z,1.70
2018-04-07T04:34:38.887Z,2.23
2018-04-07T04:35:41.413Z,2.23
2018-04-07T04:36:43.918Z,1.30
2018-04-07T04:37:46.424Z,1.73
2018-04-07T04:38:48.936Z,1.77
2018-04-07T04:39:51.446Z,1.50
2018-04-07T04:40:53.973Z,1.50
2018-04-07T04:41:56.476Z,1.47
2018-04-07T04:42:58.985Z,1.40
2018-04-07T04:44:01.489Z,1.60
2018-04-07T04:45:04.009Z,1.40
2018-04-07T04:46:06.528Z,1.90
2018-04-07T04:47:09.038Z,1.43
2018-04-07T04:48:11.541Z,1.40
2018-04-07T04:49:14.057Z,2.53
2018-04-07T04:50:16.567Z,1.87
2018-04-07T04:51:19.092Z,1.60
2018-04-07T04:52:21.612Z,1.30
2018-04-07T04:53:24.120Z,2.17
2018-04-07T04:54:26.632Z,1.47
2018-04-07T04:55:29.140Z,1.63
2018-04-07T04:56:31.668Z,1.40
2018-04-07T04:57:34.173Z,1.70
2018-04-07T04:58:36.677Z,1.30
2018-04-07T04:59:39.182Z,2.13
2018-04-07T05:00:41.684Z,1.30
2018-04-07T05:01:44.200Z,1.53
2018-04-07T05:02:46.719Z,1.37
2018-04-07T05:03:49.227Z,1.20
2018-04-07T05:04:51.760Z,1.03
2018-04-07T05:05:54.267Z,1.27
2018-04-07T05:06:56.796Z,1.37
2018-04-07T05:07:59.305Z,1.27
2018-04-07T05:09:01.841Z,1.20
2018-04-07T05:10:04.352Z,1.63
2018-04-07T05:11:06.856Z,1.57
2018-04-07T05:12:09.376Z,1.33
2018-04-07T05:13:11.877Z,1.00
2018-04-07T05:14:14.380Z,1.00
2018-04-07T05:15:16.885Z,1.10
2018-04-07T05:16:19.388Z,1.43
2018-04-07T05:17:21.908Z,1.20
2018-04-07T05:18:24.418Z,1.30
2018-04-07T05:19:26.954Z,1.40
2018-04-07T05:20:29.460Z,1.50
2018-04-07T05:21:31.960Z,1.37
2018-04-07T05:22:34.487Z,1.40
2018-04-07T05:23:37.140Z,1.03
2018-04-07T05:24:39.655Z,1.80
2018-04-07T05:25:42.160Z,1.30
2018-04-07T05:26:44.665Z,1.00
2018-04-07T05:27:47.181Z,1.30
2018-04-07T05:28:49.667Z,1.23
2018-04-07T05:29:52.191Z,1.30
2018-04-07T05:30:54.678Z,1.60
2018-04-07T05:31:57.162Z,1.10
2018-04-07T05:32:59.671Z,1.13
2018-04-07T05:34:02.184Z,1.50
2018-04-07T05:35:04.679Z,1.27
2018-04-07T05:36:07.179Z,1.00
2018-04-07T05:37:09.681Z,1.40
2018-04-07T05:38:12.180Z,0.90
2018-04-07T05:39:14.681Z,1.50
2018-04-07T05:40:17.166Z,1.30
2018-04-07T05:41:19.671Z,1.67
2018-04-07T05:42:22.159Z,1.30
2018-04-07T05:43:24.662Z,1.50
2018-04-07T05:44:27.155Z,1.00
2018-04-07T05:45:29.644Z,1.57
2018-04-07T05:46:32.161Z,1.10
2018-04-07T05:47:34.683Z,1.70
2018-04-07T05:48:37.187Z,1.40
2018-04-07T05:49:39.750Z,1.20
2018-04-07T05:50:42.256Z,1.13
2018-04-07T05:51:44.785Z,1.40
2018-04-07T05:52:47.278Z,1.17
2018-04-07T05:53:49.772Z,0.93
2018-04-07T05:54:52.248Z,1.07
2018-04-07T05:55:54.772Z,0.90
2018-04-07T05:56:57.270Z,1.30
2018-04-07T05:57:59.758Z,1.10
2018-04-07T05:59:02.259Z,1.80
2018-04-07T06:00:04.739Z,1.00
2018-04-07T06:01:07.235Z,1.17
2018-04-07T06:02:09.719Z,0.97
2018-04-07T06:03:12.211Z,1.20
2018-04-07T06:04:14.730Z,0.90
2018-04-07T06:05:17.218Z,1.30
2018-04-07T06:06:19.710Z,1.37
2018-04-07T06:07:22.202Z,1.20
2018-04-07T06:08:24.691Z,1.37
2018-04-07T06:09:27.206Z,1.60
2018-04-07T06:10:29.676Z,1.27
2018-04-07T06:11:32.164Z,1.00
2018-04-07T06:12:34.664Z,0.80
2018-04-07T06:13:37.150Z,0.90
2018-04-07T06:14:39.675Z,1.10
2018-04-07T06:15:42.180Z,1.00
2018-04-07T06:16:44.672Z,1.40
2018-04-07T06:17:47.150Z,1.20
2018-04-07T06:18:49.620Z,1.73
2018-04-07T06:19:52.126Z,0.87
2018-04-07T06:20:54.615Z,1.30
2018-04-07T06:21:57.110Z,1.00
2018-04-07T06:22:59.612Z,1.10
2018-04-07T06:24:02.150Z,1.33
2018-04-07T06:25:04.655Z,1.10
2018-04-07T06:26:07.124Z,1.10
2018-04-07T06:27:09.611Z,0.90
2018-04-07T06:28:12.106Z,1.03
2018-04-07T06:29:14.604Z,1.17
2018-04-07T06:30:17.115Z,1.20
2018-04-07T06:31:19.602Z,1.00
2018-04-07T06:32:22.240Z,1.00
2018-04-07T06:33:24.745Z,1.20
2018-04-07T06:34:27.276Z,0.90
2018-04-07T06:35:29.782Z,1.10
2018-04-07T06:36:32.249Z,1.40
2018-04-07T06:37:34.725Z,1.40
2018-04-07T06:38:37.196Z,1.27
2018-04-07T06:39:39.679Z,1.00
2018-04-07T06:40:42.193Z,1.70
2018-04-07T06:41:44.709Z,1.40
2018-04-07T06:42:47.203Z,1.07
2018-04-07T06:43:49.695Z,0.97
2018-04-07T06:44:52.426Z,1.20
2018-04-07T06:45:54.956Z,1.20
2018-04-07T06:46:57.461Z,1.20
2018-04-07T06:47:59.952Z,1.20
2018-04-07T06:49:02.428Z,0.90
2018-04-07T06:50:04.903Z,0.97
2018-04-07T06:51:07.427Z,1.30
2018-04-07T06:52:09.919Z,0.87
2018-04-07T06:53:12.433Z,1.10
2018-04-07T06:54:14.937Z,1.30
2018-04-07T06:55:17.430Z,0.90
2018-04-07T06:56:19.945Z,0.80
2018-04-07T06:57:22.452Z,1.10
2018-04-07T06:58:24.928Z,0.97
2018-04-07T06:59:27.433Z,1.13
2018-04-07T07:00:29.945Z,1.30
2018-04-07T07:01:32.454Z,1.17
2018-04-07T07:02:34.942Z,0.97
2018-04-07T07:03:37.437Z,1.67
2018-04-07T07:04:39.927Z,1.33
2018-04-07T07:05:42.603Z,1.00
2018-04-07T07:06:45.123Z,1.10
2018-04-07T07:07:47.603Z,1.10
2018-04-07T07:08:50.094Z,1.10
2018-04-07T07:09:52.587Z,0.97
2018-04-07T07:10:55.089Z,0.90
2018-04-07T07:11:57.637Z,1.20
2018-04-07T07:13:00.143Z,1.10
2018-04-07T07:14:02.638Z,1.03
2018-04-07T07:15:05.200Z,0.97
2018-04-07T07:16:07.719Z,1.30
2018-04-07T07:17:10.230Z,1.20
2018-04-07T07:18:12.722Z,0.93
2018-04-07T07:19:15.196Z,1.63
2018-04-07T07:20:17.997Z,1.40
2018-04-07T07:21:20.559Z,1.27
2018-04-07T07:22:23.059Z,1.43
2018-04-07T07:23:25.566Z,1.07
2018-04-07T07:24:28.055Z,1.20
2018-04-07T07:25:30.591Z,1.20
2018-04-07T07:26:33.094Z,1.40
2018-04-07T07:27:35.616Z,1.43
2018-04-07T07:28:38.111Z,1.20
2018-04-07T07:29:40.616Z,1.43
2018-04-07T07:30:43.109Z,1.40
2018-04-07T07:31:45.607Z,1.67
2018-04-07T07:32:48.133Z,1.20
2018-04-07T07:33:50.644Z,1.40
2018-04-07T07:34:53.130Z,1.20
2018-04-07T07:35:55.645Z,1.43
2018-04-07T07:36:58.148Z,1.30
2018-04-07T07:38:00.669Z,1.30
2018-04-07T07:39:03.180Z,1.20
2018-04-07T07:40:05.674Z,1.40
2018-04-07T07:41:08.166Z,1.33
2018-04-07T07:42:10.692Z,1.03
2018-04-07T07:43:13.226Z,1.30
2018-04-07T07:44:15.738Z,1.37
2018-04-07T07:45:18.237Z,1.30
2018-04-07T07:46:20.717Z,1.27
2018-04-07T07:47:23.204Z,1.40
2018-04-07T07:48:25.711Z,1.30
2018-04-07T07:49:28.247Z,1.50
2018-04-07T07:50:30.805Z,1.53
2018-04-07T07:51:33.295Z,1.30
2018-04-07T07:52:35.790Z,1.30
2018-04-07T07:53:38.328Z,1.03
2018-04-07T07:54:40.804Z,1.30
2018-04-07T07:55:43.284Z,1.70
2018-04-07T07:56:45.812Z,1.07
2018-04-07T07:57:48.284Z,1.10
2018-04-07T07:58:50.772Z,1.37
2018-04-07T07:59:53.302Z,1.07
2018-04-07T08:00:55.752Z,1.20
2018-04-07T08:01:58.232Z,1.40
2018-04-07T08:03:00.705Z,1.13
2018-04-07T08:04:03.211Z,1.10
2018-04-07T08:05:05.702Z,1.40
2018-04-07T08:06:08.172Z,2.00
2018-04-07T08:07:10.658Z,1.77
2018-04-07T08:08:13.142Z,2.60
2018-04-07T08:09:15.628Z,3.40
2018-04-07T08:10:18.119Z,3.33
2018-04-07T08:11:20.618Z,3.80
2018-04-07T08:12:23.138Z,4.17
2018-04-07T08:13:25.664Z,4.70
2018-04-07T08:14:28.229Z,4.70
2018-04-07T08:15:30.934Z,5.40
2018-04-07T08:16:33.506Z,5.60
2018-04-07T08:17:36.112Z,5.70
2018-04-07T08:18:38.822Z,5.17
2018-04-07T08:19:41.473Z,5.10
2018-04-07T08:20:44.071Z,5.30
2018-04-07T08:21:46.671Z,5.47
2018-04-07T08:22:49.150Z,5.40
2018-04-07T08:23:51.695Z,5.67
2018-04-07T08:24:54.242Z,5.53
2018-04-07T08:25:56.769Z,5.53
2018-04-07T08:26:59.284Z,5.83
2018-04-07T08:28:01.824Z,6.10
2018-04-07T08:29:04.343Z,6.10
2018-04-07T08:30:06.882Z,6.73
2018-04-07T08:31:09.393Z,6.00
2018-04-07T08:32:12.018Z,5.17
2018-04-07T08:33:14.548Z,5.40
2018-04-07T08:34:17.110Z,5.67
2018-04-07T08:35:19.652Z,5.30
2018-04-07T08:36:22.158Z,6.00
2018-04-07T08:37:24.683Z,5.30
2018-04-07T08:38:27.240Z,5.80
2018-04-07T08:39:29.781Z,5.40
2018-04-07T08:40:34.140Z,5.93
2018-04-07T08:41:36.652Z,5.60
2018-04-07T08:42:39.179Z,5.30
2018-04-07T08:43:41.684Z,6.00
2018-04-07T08:44:44.161Z,5.27
2018-04-07T08:45:46.689Z,5.53
2018-04-07T08:46:49.178Z,5.30
2018-04-07T08:47:51.670Z,6.00
2018-04-07T08:48:54.147Z,5.70
2018-04-07T08:49:56.648Z,5.80
2018-04-07T08:50:59.191Z,5.97
2018-04-07T08:52:01.687Z,6.97
2018-04-07T08:53:04.178Z,6.00
2018-04-07T08:54:06.675Z,5.30
2018-04-07T08:55:09.170Z,5.53
2018-04-07T08:56:11.743Z,5.90
2018-04-07T08:57:14.219Z,5.43
2018-04-07T08:58:16.715Z,5.90
2018-04-07T08:59:19.258Z,5.33
2018-04-07T09:00:21.732Z,5.30
2018-04-07T09:01:24.235Z,6.50
2018-04-07T09:02:26.732Z,6.07
2018-04-07T09:03:29.297Z,5.80
2018-04-07T09:04:31.771Z,5.73
2018-04-07T09:05:34.390Z,5.97
2018-04-07T09:06:36.966Z,5.23
2018-04-07T09:07:39.500Z,5.87
2018-04-07T09:08:41.991Z,5.70
2018-04-07T09:09:44.525Z,6.33
2018-04-07T09:10:47.068Z,5.80
2018-04-07T09:11:49.590Z,5.63
2018-04-07T09:12:52.083Z,5.20
2018-04-07T09:13:54.589Z,5.47
2018-04-07T09:14:57.214Z,5.67
2018-04-07T09:15:59.699Z,5.30
2018-04-07T09:17:02.192Z,6.20
2018-04-07T09:18:04.682Z,5.00
2018-04-07T09:19:07.170Z,6.37
2018-04-07T09:20:09.665Z,6.20
2018-04-07T09:21:12.179Z,6.20
2018-04-07T09:22:14.690Z,5.07
2018-04-07T09:23:17.275Z,5.70
2018-04-07T09:24:19.766Z,5.50
2018-04-07T09:25:22.289Z,6.00
2018-04-07T09:26:24.784Z,5.90
2018-04-07T09:27:27.276Z,5.70
2018-04-07T09:28:29.767Z,5.67
2018-04-07T09:29:33.058Z,6.37
2018-04-07T09:30:35.555Z,7.13
2018-04-07T09:31:38.037Z,6.13
2018-04-07T09:32:40.528Z,6.80
2018-04-07T09:33:43.029Z,6.10
2018-04-07T09:34:45.501Z,5.43
2018-04-07T09:35:48.048Z,5.30
2018-04-07T09:36:50.552Z,5.17
2018-04-07T09:37:53.059Z,6.07
2018-04-07T09:38:55.569Z,5.50
2018-04-07T09:39:58.127Z,5.40
2018-04-07T09:41:00.639Z,4.97
2018-04-07T09:42:03.161Z,5.23
2018-04-07T09:43:05.709Z,4.93
2018-04-07T09:44:08.204Z,4.97
2018-04-07T09:45:10.708Z,4.77
2018-04-07T09:46:13.226Z,4.33
2018-04-07T09:47:15.715Z,4.40
2018-04-07T09:48:18.251Z,4.90
2018-04-07T09:49:20.753Z,3.90
2018-04-07T09:50:23.242Z,3.47
2018-04-07T09:51:25.835Z,3.47
2018-04-07T09:52:28.334Z,3.93
2018-04-07T09:53:30.852Z,4.53
2018-04-07T09:54:33.364Z,4.20
2018-04-07T09:55:35.875Z,3.77
2018-04-07T09:56:38.368Z,4.17
2018-04-07T09:57:40.885Z,3.60
2018-04-07T09:58:43.444Z,3.43
2018-04-07T09:59:46.125Z,3.30
2018-04-07T10:00:48.614Z,3.50
2018-04-07T10:01:51.099Z,3.20
2018-04-07T10:02:59.183Z,3.60
2018-04-07T10:04:01.726Z,3.30
2018-04-07T10:05:04.222Z,3.30
2018-04-07T10:06:06.697Z,2.97
2018-04-07T10:07:09.345Z,3.47
2018-04-07T10:08:11.839Z,3.07
2018-04-07T10:09:14.348Z,3.30
2018-04-07T10:10:16.842Z,2.60
2018-04-07T10:11:19.341Z,3.50
2018-04-07T10:12:21.849Z,3.27
2018-04-07T10:13:24.386Z,2.60
2018-04-07T10:14:26.971Z,2.90
2018-04-07T10:15:29.498Z,2.67
2018-04-07T10:16:31.982Z,2.80
2018-04-07T10:17:34.545Z,2.70
2018-04-07T10:18:37.040Z,2.97
2018-04-07T10:19:39.561Z,3.00
2018-04-07T10:20:42.210Z,2.93
2018-04-07T10:21:44.698Z,2.70
2018-04-07T10:22:47.207Z,3.30
2018-04-07T10:23:49.851Z,3.30
2018-04-07T10:24:52.408Z,2.77
2018-04-07T10:25:54.909Z,3.10
2018-04-07T10:26:57.420Z,2.87
2018-04-07T10:27:59.949Z,3.20
2018-04-07T10:29:02.465Z,3.40
2018-04-07T10:30:04.984Z,3.20
2018-04-07T10:31:07.503Z,3.77
2018-04-07T10:32:10.077Z,2.80
2018-04-07T10:33:12.615Z,3.20
2018-04-07T10:34:15.125Z,2.80
2018-04-07T10:35:17.644Z,3.10
2018-04-07T10:36:20.185Z,3.10
2018-04-07T10:37:22.706Z,2.53
2018-04-07T10:38:25.199Z,3.50
2018-04-07T10:39:27.722Z,3.33
2018-04-07T10:40:30.210Z,2.60
2018-04-07T10:41:32.713Z,2.73
2018-04-07T10:42:35.216Z,3.10
2018-04-07T10:43:37.721Z,3.00
2018-04-07T10:44:40.394Z,3.07
2018-04-07T10:45:42.896Z,3.20
2018-04-07T10:46:45.509Z,3.20
2018-04-07T10:47:48.016Z,3.10
2018-04-07T10:48:50.521Z,3.10
2018-04-07T10:49:53.048Z,3.10
2018-04-07T10:50:55.553Z,2.60
2018-04-07T10:51:58.086Z,3.20
2018-04-07T10:53:00.611Z,3.47
2018-04-07T10:54:03.113Z,3.40
2018-04-07T10:55:05.685Z,2.83
2018-04-07T10:56:08.228Z,2.90
2018-04-07T10:57:10.720Z,3.10
2018-04-07T10:58:13.272Z,2.70
2018-04-07T10:59:16.538Z,2.93
2018-04-07T11:00:19.106Z,3.30
2018-04-07T11:01:21.590Z,3.10
2018-04-07T11:02:24.089Z,3.47
2018-04-07T11:03:26.572Z,3.23
2018-04-07T11:04:29.134Z,2.93
2018-04-07T11:05:31.646Z,3.60
2018-04-07T11:06:34.138Z,3.03
2018-04-07T11:07:36.653Z,3.30
2018-04-07T11:08:39.151Z,2.70
2018-04-07T11:09:41.650Z,2.83
2018-04-07T11:10:44.261Z,3.20
2018-04-07T11:11:46.750Z,3.50
2018-04-07T11:12:49.238Z,2.67
2018-04-07T11:13:51.867Z,3.30
2018-04-07T11:14:54.348Z,2.90
2018-04-07T11:15:56.884Z,3.57
2018-04-07T11:16:59.407Z,2.77
2018-04-07T11:18:01.946Z,3.23
2018-04-07T11:19:04.429Z,2.63
2018-04-07T11:20:06.904Z,3.70
2018-04-07T11:21:09.469Z,2.77
2018-04-07T11:22:11.961Z,3.07
2018-04-07T11:23:14.436Z,2.60
2018-04-07T11:24:16.937Z,2.70
2018-04-07T11:25:19.454Z,3.80
2018-04-07T11:26:22.045Z,3.00
2018-04-07T11:27:24.534Z,3.57
2018-04-07T11:28:27.095Z,2.47
2018-04-07T11:29:29.590Z,2.90
2018-04-07T11:30:32.111Z,2.93
2018-04-07T11:31:34.679Z,3.27
2018-04-07T11:32:37.176Z,3.17
2018-04-07T11:33:39.683Z,2.97
2018-04-07T11:34:42.177Z,2.90
2018-04-07T11:35:44.704Z,2.90
2018-04-07T11:36:47.281Z,2.90
2018-04-07T11:37:49.776Z,3.20
2018-04-07T11:38:52.284Z,3.20
2018-04-07T11:39:54.859Z,3.27
2018-04-07T11:40:57.350Z,3.33
2018-04-07T11:42:00.788Z,3.60
2018-04-07T11:43:03.350Z,2.93
2018-04-07T11:44:06.977Z,3.23
2018-04-07T11:45:09.519Z,2.97
2018-04-07T11:46:12.261Z,3.50
2018-04-07T11:47:15.037Z,3.00
2018-04-07T11:48:17.531Z,2.57
2018-04-07T11:49:20.018Z,3.10
2018-04-07T11:50:22.510Z,3.40
2018-04-07T11:52:32.155Z,3.93
2018-04-07T11:53:34.678Z,3.10
2018-04-07T11:54:37.156Z,2.90
2018-04-07T11:55:39.653Z,3.00
2018-04-07T11:56:42.156Z,3.00
2018-04-07T11:57:44.667Z,3.13
2018-04-07T11:58:47.175Z,2.80
2018-04-07T11:59:49.686Z,3.30
2018-04-07T12:00:52.207Z,2.87
2018-04-07T12:01:54.709Z,2.90
2018-04-07T12:02:57.194Z,3.27
2018-04-07T12:03:59.683Z,3.37
2018-04-07T12:05:02.197Z,3.17
2018-04-07T12:06:04.708Z,2.70
2018-04-07T12:07:07.242Z,2.90
2018-04-07T12:08:09.754Z,3.10
2018-04-07T12:09:12.284Z,2.80
2018-04-07T12:10:14.922Z,3.50
2018-04-07T12:11:17.687Z,3.03
2018-04-07T12:12:20.221Z,3.17
2018-04-07T12:13:22.811Z,2.97
2018-04-07T12:14:25.604Z,3.73
2018-04-07T12:15:28.103Z,3.73
2018-04-07T12:16:30.585Z,3.40
2018-04-07T12:17:33.077Z,3.10
2018-04-07T12:18:37.345Z,4.00
2018-04-07T12:19:39.901Z,3.70
2018-04-07T12:20:42.573Z,3.47
2018-04-07T12:21:45.183Z,3.57
2018-04-07T12:22:47.672Z,3.50
2018-04-07T12:23:50.250Z,3.23
2018-04-07T12:24:52.758Z,3.57
2018-04-07T12:25:55.255Z,3.27
2018-04-07T12:26:57.746Z,3.60
2018-04-07T12:28:00.267Z,4.87
2018-04-07T12:29:02.796Z,4.30
2018-04-07T12:30:05.307Z,3.90
2018-04-07T12:31:07.799Z,4.50
2018-04-07T12:32:10.304Z,4.40
2018-04-07T12:33:12.834Z,4.40
2018-04-07T12:34:15.344Z,6.13
2018-04-07T12:35:17.963Z,5.70
2018-04-07T12:36:20.645Z,5.80
2018-04-07T12:37:23.158Z,6.20
2018-04-07T12:38:25.673Z,5.97
2018-04-07T12:39:28.289Z,5.70
2018-04-07T12:40:30.821Z,6.90
2018-04-07T12:41:33.366Z,6.67
2018-04-07T12:42:35.924Z,6.00
2018-04-07T12:43:38.429Z,6.63
2018-04-07T12:44:40.920Z,6.40
2018-04-07T12:45:43.421Z,6.87
2018-04-07T12:46:45.916Z,6.43
2018-04-07T12:47:48.515Z,6.80
2018-04-07T12:48:51.080Z,7.13
2018-04-07T12:49:53.560Z,6.63
2018-04-07T12:50:56.099Z,6.17
2018-04-07T12:51:58.595Z,6.13
2018-04-07T12:53:01.106Z,6.30
2018-04-07T12:54:03.588Z,6.43
2018-04-07T12:55:06.069Z,6.27
2018-04-07T12:56:08.592Z,6.40
2018-04-07T12:57:11.087Z,5.87
2018-04-07T12:58:13.613Z,5.50
2018-04-07T12:59:16.096Z,6.47
2018-04-07T13:00:18.626Z,6.00
2018-04-07T13:01:21.133Z,6.70
2018-04-07T13:02:23.642Z,6.03
2018-04-07T13:03:26.203Z,5.63
2018-04-07T13:04:28.684Z,5.70
2018-04-07T13:05:31.183Z,6.17
2018-04-07T13:06:33.675Z,6.20
2018-04-07T13:07:36.240Z,5.70
2018-04-07T13:08:38.807Z,5.73
2018-04-07T13:09:41.325Z,5.43
2018-04-07T13:10:43.828Z,5.67
2018-04-07T13:11:46.328Z,5.77
2018-04-07T13:12:48.827Z,5.60
2018-04-07T13:13:51.394Z,5.57
2018-04-07T13:14:53.889Z,5.07
2018-04-07T13:15:56.372Z,5.50
2018-04-07T13:16:58.855Z,5.70
2018-04-07T13:18:01.350Z,4.90
2018-04-07T13:19:03.851Z,5.23
2018-04-07T13:20:06.351Z,5.90
2018-04-07T13:21:08.854Z,5.80
2018-04-07T13:22:11.351Z,5.70
2018-04-07T13:23:13.924Z,5.30
2018-04-07T13:24:16.446Z,5.70
2018-04-07T13:25:19.047Z,5.70
2018-04-07T13:26:21.546Z,4.53
2018-04-07T13:27:24.090Z,5.27
2018-04-07T13:28:26.668Z,5.50
2018-04-07T13:29:29.182Z,5.03
2018-04-07T13:30:31.678Z,5.40
2018-04-07T13:31:34.185Z,5.27
2018-04-07T13:32:36.694Z,4.93
2018-04-07T13:33:39.220Z,5.47
2018-04-07T13:34:41.777Z,4.87
2018-04-07T13:35:44.336Z,5.13
2018-04-07T13:36:46.827Z,4.60
2018-04-07T13:37:49.355Z,5.73
2018-04-07T13:38:51.841Z,4.97
2018-04-07T13:39:54.375Z,4.83
2018-04-07T13:40:56.865Z,5.00
2018-04-07T13:41:59.354Z,4.90
2018-04-07T13:43:01.843Z,4.90
2018-04-07T13:44:04.348Z,4.47
2018-04-07T13:45:06.876Z,4.73
2018-04-07T13:46:09.372Z,5.07
2018-04-07T13:47:11.883Z,4.53
2018-04-07T13:48:14.445Z,5.20
2018-04-07T13:49:17.005Z,5.00
2018-04-07T13:50:19.574Z,4.53
2018-04-07T13:51:22.183Z,5.00
2018-04-07T13:52:24.703Z,4.33
2018-04-07T13:53:27.247Z,4.70